Terminal Aerodrome Forecast
Issued by NWS

Home | Current Version | Previous Version | Text Only | Print | Product List | Glossary On
Versions: 1 2 3 4 5 6 7 8 9 10 11 12 13 14 15 16 17
000
FTUS41 KBTV 300531
TAFMPV
TAF
KMPV 300531Z 3006/3106 VRB02KT P6SM SKC
     FM300800 00000KT 5SM BR SKC
      TEMPO 3008/3012 2SM BR BKN001
     FM301300 18003KT P6SM SKC
     FM301800 19007KT 5SM -TSRA BR SCT040CB BKN120
     FM302000 22005KT P6SM SCT060 SCT250
     FM310000 22003KT P6SM SKC=

USA.gov is the U.S. government's official web portal to all federal, state and local government web resources and services.